Stations météo

Publicité
Paris St-Maur, France (7154): Température de l'air & dewpoint: 16.10.2017 02:00:00 - 22.10.2017 02:00:00 (CEST)Paris St-Maur, France (7154): Vitesse du vent & gusts: 16.10.2017 02:00:00 - 22.10.2017 02:00:00 (CEST)Paris St-Maur, France (7154): Direction du vent: 16.10.2017 02:00:00 - 22.10.2017 02:00:00 (CEST)Paris St-Maur, France (7154): Quantités de précipitations: 16.10.2017 02:00:00 - 22.10.2017 02:00:00 (CEST)
Date & Time tt [°C] td [°C] ff [km/h] ff [knt] fx [km/h] fx [knt] dd rr [mm]
22.10.2017 02:00:00 10,3 5,9 13 7 39 21 SSW -
22.10.2017 01:00:00 11,0 6,3 24 13 44 24 SSW 0,0
22.10.2017 00:00:00 11,6 6,3 22 12 42 23 SW 0,0
21.10.2017 23:00:00 12,0 6,5 18 10 42 23 SSW 0,0
21.10.2017 22:00:00 12,4 7,1 18 10 44 24 SSW 0,0
21.10.2017 21:00:00 12,8 7,0 18 10 48 26 SW 0,0
21.10.2017 20:00:00 13,4 6,0 24 13 48 26 SW -
21.10.2017 19:00:00 14,2 6,3 21 11 48 26 SW 0,0
21.10.2017 18:00:00 15,5 6,8 24 13 46 25 SSW 0,0
21.10.2017 17:00:00 15,7 8,0 16 9 72 39 WSW 0,2
21.10.2017 16:00:00 18,0 6,5 28 15 55 30 SW 0,0
21.10.2017 15:00:00 18,0 7,7 29 16 57 31 SW 0,0
21.10.2017 14:00:00 16,9 9,1 22 12 52 28 SW -
21.10.2017 13:00:00 16,4 10,9 22 12 46 25 SSW 0,0
21.10.2017 12:00:00 15,8 11,0 18 10 41 22 SSW 0,0
21.10.2017 11:00:00 15,4 11,2 22 12 42 23 SSW 0,0
21.10.2017 10:00:00 15,3 11,9 18 10 37 20 SSW 0,0
21.10.2017 09:00:00 15,4 12,5 22 12 44 24 SSW 0,0
21.10.2017 08:00:00 16,0 13,1 21 11 48 26 SW -
21.10.2017 07:00:00 15,0 13,0 13 7 31 17 S 0,0
21.10.2017 06:00:00 14,0 12,4 15 8 24 13 S 0,0
21.10.2017 05:00:00 13,0 11,4 13 7 29 16 S 0,0
21.10.2017 04:00:00 12,0 10,4 15 8 24 13 S 0,0
21.10.2017 03:00:00 11,5 9,6 11 6 26 14 SSE 0,0
21.10.2017 02:00:00 11,4 9,1 15 8 24 13 S -
21.10.2017 01:00:00 10,6 8,2 9 5 16 9 S 0,0
21.10.2017 00:00:00 11,4 8,1 9 5 21 11 SSE 0,0
20.10.2017 23:00:00 11,5 8,2 11 6 21 11 S 0,0
20.10.2017 22:00:00 11,8 8,1 11 6 18 10 S 0,0
20.10.2017 21:00:00 12,5 8,2 9 5 15 8 SSE 0,0
20.10.2017 20:00:00 13,2 8,3 9 5 18 10 S -
20.10.2017 19:00:00 14,9 7,7 11 6 31 17 SSW 0,0
20.10.2017 18:00:00 16,1 7,1 18 10 35 19 SSW 0,0
20.10.2017 17:00:00 17,3 7,1 21 11 41 22 SSW 0,0
20.10.2017 16:00:00 17,6 6,5 18 10 42 23 SW 0,0
20.10.2017 15:00:00 16,5 6,3 18 10 44 24 WSW 0,0
20.10.2017 14:00:00 16,3 5,6 28 15 46 25 SW -
20.10.2017 13:00:00 16,3 7,2 24 13 42 23 SW 0,0
20.10.2017 12:00:00 15,5 7,8 24 13 42 23 SW 0,0
20.10.2017 11:00:00 14,2 8,8 18 10 39 21 SSW 0,0
20.10.2017 10:00:00 12,2 9,2 21 11 37 20 SSW 0,0
20.10.2017 09:00:00 11,7 9,3 15 8 31 17 SSW 0,0
20.10.2017 08:00:00 11,9 9,3 16 9 35 19 SSW -
20.10.2017 07:00:00 12,5 10,2 16 9 34 18 SW 0,0
20.10.2017 06:00:00 13,3 11,0 15 8 31 17 SW 0,0
20.10.2017 05:00:00 13,7 11,9 16 9 44 24 SSW 0,6
20.10.2017 04:00:00 14,1 12,5 26 14 55 30 SSW 2,0
20.10.2017 03:00:00 15,2 13,1 22 12 46 25 SSW 2,0
20.10.2017 02:00:00 15,9 11,9 22 12 39 21 S -
20.10.2017 01:00:00 16,1 11,9 18 10 50 27 S 0,0
20.10.2017 00:00:00 15,6 12,2 15 8 34 18 SSW 0,0
19.10.2017 23:00:00 16,1 12,5 16 9 29 16 S 0,0
19.10.2017 22:00:00 16,7 12,6 16 9 29 16 S 0,0
19.10.2017 21:00:00 17,5 13,0 13 7 22 12 S 0,0
19.10.2017 20:00:00 17,7 12,4 11 6 28 15 SSE -
19.10.2017 19:00:00 19,5 12,0 16 9 28 15 SSW 0,0
19.10.2017 18:00:00 20,5 13,0 16 9 37 20 SSW 0,0
19.10.2017 17:00:00 22,0 13,1 18 10 39 21 S 0,0
19.10.2017 16:00:00 21,3 13,0 21 11 48 26 S 0,0
19.10.2017 15:00:00 21,7 12,3 28 15 55 30 S 0,0
19.10.2017 14:00:00 21,9 13,5 16 9 48 26 S -
19.10.2017 13:00:00 21,1 13,5 18 10 39 21 S 0,0
19.10.2017 12:00:00 19,1 13,3 13 7 28 15 S 0,0
19.10.2017 11:00:00 16,9 12,4 11 6 29 16 S 0,0
19.10.2017 10:00:00 15,2 11,8 13 7 24 13 SSE 0,0
19.10.2017 09:00:00 14,1 11,4 9 5 22 12 SE 0,0
19.10.2017 08:00:00 14,0 11,3 9 5 22 12 SSE -
19.10.2017 07:00:00 12,9 11,1 11 6 22 12 SSE 0,0
19.10.2017 06:00:00 12,7 10,9 5 3 18 10 SSE 0,0
19.10.2017 05:00:00 12,5 10,7 8 4 18 10 SSE 0,0
19.10.2017 04:00:00 12,4 10,6 5 3 15 8 SE 0,0
19.10.2017 03:00:00 12,6 10,8 8 4 15 8 SE 0,0
19.10.2017 02:00:00 13,0 10,9 4 2 13 7 NE -
19.10.2017 01:00:00 13,3 11,2 8 4 15 8 E 0,0
19.10.2017 00:00:00 13,5 11,6 0 0 15 8 N 0,0
18.10.2017 23:00:00 14,0 11,9 8 4 15 8 ESE 0,0
18.10.2017 22:00:00 14,8 12,3 8 4 18 10 ESE 0,0
18.10.2017 21:00:00 15,3 12,6 9 5 15 8 E 0,0
18.10.2017 20:00:00 16,2 12,9 4 2 11 6 ESE -
18.10.2017 19:00:00 17,7 13,2 5 3 11 6 ESE 0,0
18.10.2017 18:00:00 19,9 13,1 4 2 5 3 E 0,0
18.10.2017 17:00:00 20,7 12,9 0 0 8 4 N 0,0
18.10.2017 16:00:00 20,7 12,4 5 3 18 10 SW 0,0
18.10.2017 15:00:00 21,2 11,8 11 6 22 12 S 0,0
18.10.2017 14:00:00 20,8 11,1 13 7 22 12 SSW -
18.10.2017 13:00:00 19,6 10,8 11 6 22 12 S 0,0
18.10.2017 12:00:00 17,8 10,4 13 7 18 10 S 0,0
18.10.2017 11:00:00 16,0 10,5 9 5 16 9 S 0,0
18.10.2017 10:00:00 12,8 10,2 9 5 18 10 S 0,0
18.10.2017 09:00:00 11,8 11,0 9 5 18 10 S 0,0
18.10.2017 08:00:00 11,6 11,0 11 6 16 9 SSE -
18.10.2017 07:00:00 11,4 10,6 8 4 13 7 SSE 0,0
18.10.2017 06:00:00 11,9 11,1 8 4 16 9 S 0,0
18.10.2017 05:00:00 12,4 11,8 11 6 16 9 SSE 0,0
18.10.2017 04:00:00 12,4 11,6 8 4 11 6 SSE 0,0
18.10.2017 03:00:00 12,8 12,0 5 3 8 4 SSE 0,2
18.10.2017 02:00:00 13,5 12,6 5 3 11 6 SSE -
18.10.2017 01:00:00 14,3 13,3 5 3 9 5 ESE 0,0
18.10.2017 00:00:00 15,2 14,1 2 1 13 7 SSE 0,0
17.10.2017 23:00:00 15,7 14,4 5 3 11 6 E 0,0
17.10.2017 22:00:00 16,2 14,7 4 2 11 6 ENE 0,0
17.10.2017 21:00:00 17,0 15,0 5 3 11 6 E 0,0
17.10.2017 20:00:00 18,1 15,4 5 3 11 6 NE -
17.10.2017 19:00:00 20,0 15,6 8 4 13 7 E 0,0
17.10.2017 18:00:00 22,1 16,1 8 4 13 7 E 0,0
17.10.2017 17:00:00 23,8 15,8 5 3 16 9 ESE 0,0
17.10.2017 16:00:00 24,3 14,7 4 2 15 8 SSE 0,0
17.10.2017 15:00:00 23,5 15,3 4 2 13 7 E 0,0
17.10.2017 14:00:00 22,7 14,8 4 2 9 5 ESE -
17.10.2017 13:00:00 20,9 14,5 4 2 13 7 N 0,0
17.10.2017 12:00:00 19,0 13,6 5 3 11 6 NNE 0,0
17.10.2017 11:00:00 16,8 13,7 5 3 15 8 NE 0,0
17.10.2017 10:00:00 14,2 13,4 2 1 13 7 ENE 0,0
17.10.2017 09:00:00 12,9 12,1 5 3 8 4 N 0,0
17.10.2017 08:00:00 12,7 11,8 4 2 8 4 N -
17.10.2017 07:00:00 13,1 12,0 4 2 5 3 NNE 0,0
17.10.2017 06:00:00 13,5 12,4 4 2 8 4 SSE 0,0
17.10.2017 05:00:00 14,2 12,6 8 4 9 5 SSE 0,0
17.10.2017 04:00:00 14,6 12,5 4 2 8 4 NW 0,0
17.10.2017 03:00:00 15,4 12,9 2 1 13 7 W 0,0
17.10.2017 02:00:00 16,2 14,0 9 5 18 10 WNW -
17.10.2017 01:00:00 16,4 14,8 8 4 13 7 W 0,0
17.10.2017 00:00:00 16,7 14,7 5 3 8 4 SSW 0,0
16.10.2017 23:00:00 17,4 14,7 4 2 9 5 S 0,0
16.10.2017 22:00:00 17,9 15,0 5 3 11 6 SW 0,0
16.10.2017 21:00:00 18,4 14,9 8 4 11 6 SW 0,0
16.10.2017 20:00:00 19,5 14,9 4 2 15 8 S -
16.10.2017 19:00:00 21,4 15,0 9 5 16 9 SSW 0,0
16.10.2017 18:00:00 24,0 14,7 9 5 26 14 S 0,0
16.10.2017 17:00:00 25,2 13,7 11 6 28 15 S 0,0
16.10.2017 16:00:00 25,3 13,8 13 7 26 14 S 0,0
16.10.2017 15:00:00 24,6 13,5 11 6 24 13 S 0,0
16.10.2017 14:00:00 23,9 14,0 9 5 21 11 S -
16.10.2017 13:00:00 22,5 13,6 13 7 22 12 SSE 0,0
16.10.2017 12:00:00 20,4 13,1 13 7 22 12 S 0,0
16.10.2017 11:00:00 18,9 13,1 8 4 18 10 SE 0,0
16.10.2017 10:00:00 15,2 12,9 9 5 22 12 SSE 0,0
16.10.2017 09:00:00 13,3 12,5 9 5 15 8 S 0,0
16.10.2017 08:00:00 13,0 12,1 8 4 13 7 SSE -
16.10.2017 07:00:00 13,2 12,1 5 3 15 8 S 0,0
16.10.2017 06:00:00 13,6 12,3 4 2 9 5 SSE 0,0
16.10.2017 05:00:00 14,1 12,5 8 4 11 6 SSE 0,0
16.10.2017 04:00:00 14,9 12,8 9 5 16 9 SSE 0,0
16.10.2017 03:00:00 15,7 13,2 11 6 16 9 SSE 0,0
16.10.2017 02:00:00 16,9 13,2 11 6 21 11 S -

tt = Température de l'air
td = dewpoint
ff = Vitesse du vent
fx = gusts
dd = Direction du vent
rr = Quantités de précipitations

stations d'obs. à proximité